createdAt,value
2018-08-20T00:00:23.324Z,21.37
2018-08-20T00:01:23.292Z,21.39
2018-08-20T00:02:23.299Z,21.37
2018-08-20T00:03:23.558Z,21.32
2018-08-20T00:04:23.843Z,21.36
2018-08-20T00:05:23.337Z,21.35
2018-08-20T00:06:23.804Z,21.4
2018-08-20T00:07:23.857Z,21.22
2018-08-20T00:08:23.570Z,21.24
2018-08-20T00:09:23.830Z,21.29
2018-08-20T00:10:23.569Z,21.24
2018-08-20T00:11:23.562Z,21.24
2018-08-20T00:12:23.836Z,21.24
2018-08-20T00:13:23.580Z,21.32
2018-08-20T00:14:23.642Z,21.22
2018-08-20T00:15:23.594Z,21.21
2018-08-20T00:16:23.338Z,21.21
2018-08-20T00:17:23.328Z,21.22
2018-08-20T00:18:23.854Z,21.17
2018-08-20T00:19:23.589Z,21.22
2018-08-20T00:20:23.630Z,21.22
2018-08-20T00:21:23.348Z,21.2
2018-08-20T00:22:23.605Z,21.21
2018-08-20T00:23:23.839Z,21.22
2018-08-20T00:24:23.849Z,21.14
2018-08-20T00:25:23.628Z,21.12
2018-08-20T00:26:23.860Z,21.06
2018-08-20T00:27:23.346Z,21.06
2018-08-20T00:28:23.863Z,21.05
2018-08-20T00:29:23.603Z,21
2018-08-20T00:30:23.895Z,21.02
2018-08-20T00:31:23.864Z,20.9
2018-08-20T00:32:23.863Z,20.96
2018-08-20T00:33:23.359Z,20.88
2018-08-20T00:34:23.608Z,20.92
2018-08-20T00:35:23.351Z,20.92
2018-08-20T00:36:23.876Z,20.93
2018-08-20T00:37:23.867Z,20.92
2018-08-20T00:38:23.620Z,20.93
2018-08-20T00:39:23.611Z,20.92
2018-08-20T00:40:23.694Z,20.92
2018-08-20T00:41:23.901Z,20.95
2018-08-20T00:42:23.618Z,20.88
2018-08-20T00:43:23.904Z,21
2018-08-20T00:44:23.648Z,20.96
2018-08-20T00:45:23.629Z,20.95
2018-08-20T00:46:23.901Z,20.9
2018-08-20T00:47:23.907Z,20.9
2018-08-20T00:48:23.410Z,20.88
2018-08-20T00:49:23.903Z,20.85
2018-08-20T00:50:23.923Z,20.85
2018-08-20T00:51:23.907Z,20.81
2018-08-20T00:52:23.404Z,20.88
2018-08-20T00:53:23.398Z,20.72
2018-08-20T00:54:23.645Z,20.87
2018-08-20T00:55:23.974Z,20.9
2018-08-20T00:56:23.909Z,20.85
2018-08-20T00:57:23.670Z,20.85
2018-08-20T00:58:23.909Z,20.8
2018-08-20T00:59:23.407Z,20.77
2018-08-20T01:00:23.743Z,20.75
2018-08-20T01:01:23.660Z,20.77
2018-08-20T01:02:23.672Z,20.65
2018-08-20T01:03:23.929Z,20.7
2018-08-20T01:04:23.413Z,20.67
2018-08-20T01:05:24.010Z,20.65
2018-08-20T01:06:23.950Z,20.56
2018-08-20T01:07:23.662Z,20.59
2018-08-20T01:08:23.666Z,20.56
2018-08-20T01:09:23.930Z,20.59
2018-08-20T01:10:23.958Z,20.59
2018-08-20T01:11:23.425Z,20.58
2018-08-20T01:12:23.669Z,20.56
2018-08-20T01:13:23.672Z,20.67
2018-08-20T01:14:23.672Z,20.63
2018-08-20T01:15:23.669Z,20.63
2018-08-20T01:16:23.445Z,20.65
2018-08-20T01:17:23.682Z,20.65
2018-08-20T01:18:23.722Z,20.55
2018-08-20T01:19:23.694Z,20.59
2018-08-20T01:20:23.721Z,20.55
2018-08-20T01:21:23.681Z,20.59
2018-08-20T01:22:23.705Z,20.56
2018-08-20T01:23:23.452Z,20.55
2018-08-20T01:24:23.711Z,20.52
2018-08-20T01:25:23.997Z,20.52
2018-08-20T01:26:23.956Z,20.5
2018-08-20T01:27:23.706Z,20.39
2018-08-20T01:28:23.958Z,20.37
2018-08-20T01:29:23.448Z,20.4
2018-08-20T01:30:23.953Z,20.36
2018-08-20T01:31:23.719Z,20.34
2018-08-20T01:32:23.706Z,20.32
2018-08-20T01:33:23.731Z,20.36
2018-08-20T01:34:23.514Z,20.4
2018-08-20T01:35:24.032Z,20.37
2018-08-20T01:36:23.705Z,20.36
2018-08-20T01:37:23.976Z,20.31
2018-08-20T01:38:23.964Z,20.29
2018-08-20T01:39:23.981Z,20.25
2018-08-20T01:40:23.770Z,20.31
2018-08-20T01:41:23.475Z,20.29
2018-08-20T01:42:23.726Z,20.24
2018-08-20T01:43:23.973Z,20.29
2018-08-20T01:44:23.999Z,20.18
2018-08-20T01:45:23.578Z,20.18
2018-08-20T01:46:23.996Z,20.19
2018-08-20T01:47:23.983Z,20.21
2018-08-20T01:48:23.477Z,20.24
2018-08-20T01:49:24.003Z,20.28
2018-08-20T01:50:24.008Z,20.31
2018-08-20T01:51:23.991Z,20.22
2018-08-20T01:52:23.734Z,20.25
2018-08-20T01:53:23.988Z,20.26
2018-08-20T01:54:23.734Z,20.22
2018-08-20T01:55:24.028Z,20.19
2018-08-20T01:56:24.018Z,20.26
2018-08-20T01:57:24.010Z,20.25
2018-08-20T01:58:24.006Z,20.31
2018-08-20T01:59:23.751Z,20.41
2018-08-20T02:00:24.006Z,20.4
2018-08-20T02:01:23.998Z,20.34
2018-08-20T02:02:24.006Z,20.36
2018-08-20T02:03:23.779Z,20.29
2018-08-20T02:04:24.035Z,20.34
2018-08-20T02:05:23.829Z,20.25
2018-08-20T02:06:24.006Z,20.25
2018-08-20T02:07:23.758Z,20.18
2018-08-20T02:08:23.760Z,20.24
2018-08-20T02:09:23.498Z,20.18
2018-08-20T02:10:24.075Z,20.24
2018-08-20T02:11:23.512Z,20.19
2018-08-20T02:12:24.013Z,20.21
2018-08-20T02:13:23.762Z,20.16
2018-08-20T02:14:24.016Z,20.25
2018-08-20T02:15:23.775Z,20.21
2018-08-20T02:16:24.010Z,20.19
2018-08-20T02:17:24.031Z,20.24
2018-08-20T02:18:23.760Z,20.22
2018-08-20T02:19:23.772Z,20.24
2018-08-20T02:20:24.054Z,20.13
2018-08-20T02:21:24.030Z,20.14
2018-08-20T02:22:24.027Z,20.16
2018-08-20T02:23:24.027Z,20.18
2018-08-20T02:24:24.029Z,20.22
2018-08-20T02:25:23.766Z,20.21
2018-08-20T02:26:24.039Z,20.34
2018-08-20T02:27:24.028Z,20.31
2018-08-20T02:28:24.038Z,20.31
2018-08-20T02:29:24.033Z,20.29
2018-08-20T02:30:24.052Z,20.31
2018-08-20T02:31:24.041Z,20.29
2018-08-20T02:32:23.786Z,20.22
2018-08-20T02:33:23.776Z,20.28
2018-08-20T02:34:24.039Z,20.28
2018-08-20T02:35:23.892Z,20.19
2018-08-20T02:36:23.800Z,20.19
2018-08-20T02:37:23.789Z,20.14
2018-08-20T02:38:24.056Z,20.16
2018-08-20T02:39:23.793Z,20.14
2018-08-20T02:40:23.876Z,20.11
2018-08-20T02:41:24.040Z,20.03
2018-08-20T02:42:24.047Z,20.04
2018-08-20T02:43:24.060Z,20.04
2018-08-20T02:44:23.799Z,20
2018-08-20T02:45:23.913Z,19.91
2018-08-20T02:46:23.828Z,19.88
2018-08-20T02:47:24.053Z,19.86
2018-08-20T02:48:24.104Z,19.85
2018-08-20T02:49:23.803Z,19.89
2018-08-20T02:50:24.136Z,20
2018-08-20T02:51:24.067Z,20.16
2018-08-20T02:52:24.068Z,20.1
2018-08-20T02:53:24.075Z,20.07
2018-08-20T02:54:23.816Z,20.14
2018-08-20T02:55:23.815Z,20.18
2018-08-20T02:56:24.074Z,20.18
2018-08-20T02:57:24.077Z,20.26
2018-08-20T02:58:24.071Z,20.24
2018-08-20T02:59:23.569Z,20.29
2018-08-20T03:00:23.867Z,20.31
2018-08-20T03:01:24.079Z,20.28
2018-08-20T03:02:23.831Z,20.26
2018-08-20T03:03:23.834Z,20.29
2018-08-20T03:04:24.088Z,20.29
2018-08-20T03:05:23.814Z,20.29
2018-08-20T03:06:23.825Z,20.34
2018-08-20T03:07:23.818Z,20.32
2018-08-20T03:08:23.851Z,20.25
2018-08-20T03:09:24.132Z,20.37
2018-08-20T03:10:24.171Z,20.26
2018-08-20T03:11:24.080Z,20.28
2018-08-20T03:12:24.091Z,20.26
2018-08-20T03:13:23.831Z,20.36
2018-08-20T03:14:24.199Z,20.36
2018-08-20T03:15:23.831Z,20.37
2018-08-20T03:16:23.917Z,20.31
2018-08-20T03:17:23.873Z,20.29
2018-08-20T03:18:23.577Z,20.29
2018-08-20T03:19:23.828Z,20.25
2018-08-20T03:20:23.899Z,20.28
2018-08-20T03:21:24.093Z,20.34
2018-08-20T03:22:24.097Z,20.31
2018-08-20T03:23:24.101Z,20.22
2018-08-20T03:24:24.113Z,20.19
2018-08-20T03:25:23.915Z,20.24
2018-08-20T03:26:23.848Z,20.14
2018-08-20T03:27:24.098Z,20.16
2018-08-20T03:28:23.847Z,20.24
2018-08-20T03:29:24.110Z,20.25
2018-08-20T03:30:23.865Z,20.29
2018-08-20T03:31:23.620Z,20.18
2018-08-20T03:32:23.874Z,20.18
2018-08-20T03:33:23.853Z,20.14
2018-08-20T03:34:23.852Z,20.06
2018-08-20T03:35:24.124Z,20.03
2018-08-20T03:36:23.603Z,20.06
2018-08-20T03:37:24.121Z,20.06
2018-08-20T03:38:23.864Z,20.07
2018-08-20T03:39:23.869Z,20.16
2018-08-20T03:40:23.907Z,20.11
2018-08-20T03:41:23.868Z,20.16
2018-08-20T03:42:23.869Z,20.16
2018-08-20T03:43:23.911Z,20.14
2018-08-20T03:44:24.131Z,20.18
2018-08-20T03:45:23.613Z,20.07
2018-08-20T03:46:23.883Z,20.03
2018-08-20T03:47:24.124Z,20.06
2018-08-20T03:48:24.146Z,20.07
2018-08-20T03:49:23.871Z,20.04
2018-08-20T03:50:24.239Z,20.09
2018-08-20T03:51:23.873Z,20
2018-08-20T03:52:23.623Z,20.06
2018-08-20T03:53:23.886Z,19.94
2018-08-20T03:54:23.877Z,19.99
2018-08-20T03:55:23.618Z,19.95
2018-08-20T03:56:23.628Z,19.96
2018-08-20T03:57:23.890Z,20
2018-08-20T03:58:24.147Z,19.99
2018-08-20T03:59:23.888Z,19.91
2018-08-20T04:00:24.152Z,20.02
2018-08-20T04:01:23.890Z,20.07
2018-08-20T04:02:25.496Z,20.02
2018-08-20T04:03:23.885Z,20.02
2018-08-20T04:04:23.885Z,20.03
2018-08-20T04:05:24.145Z,20
2018-08-20T04:06:23.893Z,19.95
2018-08-20T04:07:23.895Z,19.94
2018-08-20T04:08:23.884Z,20.04
2018-08-20T04:09:23.893Z,19.95
2018-08-20T04:10:23.931Z,19.92
2018-08-20T04:11:23.905Z,19.91
2018-08-20T04:12:24.154Z,19.94
2018-08-20T04:13:23.922Z,19.84
2018-08-20T04:14:24.147Z,19.85
2018-08-20T04:15:23.976Z,19.82
2018-08-20T04:16:23.893Z,19.81
2018-08-20T04:17:23.894Z,19.84
2018-08-20T04:18:24.153Z,19.92
2018-08-20T04:19:24.156Z,19.81
2018-08-20T04:20:24.210Z,19.81
2018-08-20T04:21:23.640Z,19.81
2018-08-20T04:22:23.916Z,19.84
2018-08-20T04:23:24.167Z,19.81
2018-08-20T04:24:23.672Z,19.73
2018-08-20T04:25:23.919Z,19.69
2018-08-20T04:26:24.168Z,19.59
2018-08-20T04:27:24.725Z,19.64
2018-08-20T04:28:24.215Z,19.69
2018-08-20T04:29:23.932Z,19.7
2018-08-20T04:30:24.194Z,19.7
2018-08-20T04:31:23.925Z,19.69
2018-08-20T04:32:23.907Z,19.71
2018-08-20T04:33:24.176Z,19.84
2018-08-20T04:34:24.185Z,19.76
2018-08-20T04:35:23.962Z,19.74
2018-08-20T04:36:24.332Z,19.84
2018-08-20T04:37:24.159Z,19.82
2018-08-20T04:38:24.184Z,19.86
2018-08-20T04:39:24.179Z,19.85
2018-08-20T04:40:24.220Z,19.85
2018-08-20T04:41:24.195Z,19.85
2018-08-20T04:42:24.250Z,19.81
2018-08-20T04:43:23.935Z,19.94
2018-08-20T04:44:24.178Z,19.88
2018-08-20T04:45:23.944Z,19.85
2018-08-20T04:46:23.999Z,19.85
2018-08-20T04:47:23.937Z,19.82
2018-08-20T04:48:23.953Z,19.69
2018-08-20T04:49:23.957Z,19.74
2018-08-20T04:50:24.600Z,19.81
2018-08-20T04:51:24.180Z,19.81
2018-08-20T04:52:23.671Z,19.79
2018-08-20T04:53:23.697Z,19.92
2018-08-20T04:54:23.950Z,19.94
2018-08-20T04:55:23.947Z,20
2018-08-20T04:56:24.204Z,20.11
2018-08-20T04:57:23.938Z,20.32
2018-08-20T04:58:24.190Z,20.52
2018-08-20T04:59:23.682Z,20.72
2018-08-20T05:00:23.936Z,20.97
2018-08-20T05:01:24.201Z,21.12
2018-08-20T05:02:23.948Z,21.35
2018-08-20T05:03:24.466Z,21.46
2018-08-20T05:04:23.967Z,21.55
2018-08-20T05:05:24.204Z,21.55
2018-08-20T05:06:23.693Z,21.52
2018-08-20T05:07:23.952Z,21.64
2018-08-20T05:08:24.215Z,21.52
2018-08-20T05:09:23.957Z,21.54
2018-08-20T05:10:24.291Z,21.55
2018-08-20T05:11:23.952Z,21.62
2018-08-20T05:12:23.958Z,21.77
2018-08-20T05:13:23.967Z,22.06
2018-08-20T05:14:24.052Z,22.2
2018-08-20T05:15:24.285Z,22.38
2018-08-20T05:16:23.721Z,22.65
2018-08-20T05:17:23.979Z,22.81
2018-08-20T05:18:24.032Z,22.93
2018-08-20T05:19:23.979Z,23.15
2018-08-20T05:20:24.264Z,23.17
2018-08-20T05:21:23.994Z,23.18
2018-08-20T05:22:24.003Z,23.15
2018-08-20T05:23:24.008Z,23.08
2018-08-20T05:24:24.252Z,22.87
2018-08-20T05:25:23.826Z,22.66
2018-08-20T05:26:24.269Z,22.51
2018-08-20T05:27:24.016Z,22.28
2018-08-20T05:28:24.273Z,22.2
2018-08-20T05:29:24.433Z,22.07
2018-08-20T05:30:23.825Z,21.99
2018-08-20T05:31:24.018Z,21.89
2018-08-20T05:32:24.324Z,21.88
2018-08-20T05:33:24.033Z,21.91
2018-08-20T05:34:23.796Z,21.72
2018-08-20T05:35:24.340Z,21.82
2018-08-20T05:36:24.308Z,21.66
2018-08-20T05:37:24.056Z,21.62
2018-08-20T05:38:24.061Z,21.5
2018-08-20T05:39:24.300Z,21.48
2018-08-20T05:40:24.299Z,21.5
2018-08-20T05:41:24.045Z,21.54
2018-08-20T05:42:24.053Z,21.62
2018-08-20T05:43:24.306Z,21.89
2018-08-20T05:44:24.055Z,22.11
2018-08-20T05:45:23.887Z,22.43
2018-08-20T05:46:24.326Z,22.76
2018-08-20T05:47:23.821Z,23
2018-08-20T05:48:23.816Z,23.12
2018-08-20T05:49:24.331Z,23.06
2018-08-20T05:50:24.071Z,22.93
2018-08-20T05:51:24.078Z,22.87
2018-08-20T05:52:24.161Z,22.8
2018-08-20T05:53:23.827Z,22.73
2018-08-20T05:54:23.833Z,22.62
2018-08-20T05:55:24.179Z,22.68
2018-08-20T05:56:24.092Z,22.81
2018-08-20T05:57:23.849Z,23.03
2018-08-20T05:58:24.366Z,23.46
2018-08-20T05:59:24.712Z,23.87
2018-08-20T06:00:24.173Z,24.38
2018-08-20T06:01:24.114Z,24.85
2018-08-20T06:02:24.367Z,25.13
2018-08-20T06:03:24.118Z,25.51
2018-08-20T06:04:24.389Z,25.85
2018-08-20T06:05:24.527Z,26.07
2018-08-20T06:06:23.875Z,26.16
2018-08-20T06:07:24.143Z,26.31
2018-08-20T06:08:24.411Z,26.06
2018-08-20T06:09:24.155Z,25.83
2018-08-20T06:10:24.156Z,25.5
2018-08-20T06:11:24.166Z,25.23
2018-08-20T06:12:24.153Z,24.92
2018-08-20T06:13:24.168Z,24.81
2018-08-20T06:14:23.909Z,24.76
2018-08-20T06:15:24.900Z,24.86
2018-08-20T06:16:24.439Z,24.99
2018-08-20T06:17:23.944Z,25.04
2018-08-20T06:18:23.932Z,24.88
2018-08-20T06:19:24.216Z,24.91
2018-08-20T06:20:24.187Z,24.84
2018-08-20T06:21:24.198Z,24.99
2018-08-20T06:22:24.226Z,25.17
2018-08-20T06:23:24.203Z,25.47
2018-08-20T06:24:24.220Z,25.95
2018-08-20T06:25:24.219Z,26.38
2018-08-20T06:26:24.488Z,26.68
2018-08-20T06:27:24.514Z,26.89
2018-08-20T06:28:24.228Z,26.96
2018-08-20T06:29:24.246Z,27.12
2018-08-20T06:30:24.258Z,27.32
2018-08-20T06:31:24.270Z,27.49
2018-08-20T06:32:24.270Z,27.73
2018-08-20T06:33:24.258Z,28.01
2018-08-20T06:34:24.026Z,28.29
2018-08-20T06:35:24.025Z,28.45
2018-08-20T06:36:24.537Z,28.59
2018-08-20T06:37:24.281Z,28.78
2018-08-20T06:38:24.286Z,28.97
2018-08-20T06:39:24.289Z,29.04
2018-08-20T06:40:24.559Z,29.34
2018-08-20T06:41:24.313Z,29.6
2018-08-20T06:42:24.087Z,29.73
2018-08-20T06:43:24.334Z,29.75
2018-08-20T06:44:24.623Z,29.87
2018-08-20T06:45:24.171Z,29.95
2018-08-20T06:46:24.347Z,30.12
2018-08-20T06:47:24.094Z,30.3
2018-08-20T06:48:24.099Z,30.4
2018-08-20T06:49:24.102Z,30.24
2018-08-20T06:50:24.640Z,30.34
2018-08-20T06:51:24.634Z,30.39
2018-08-20T06:52:24.382Z,30.57
2018-08-20T06:53:24.391Z,30.51
2018-08-20T06:54:24.718Z,30.66
2018-08-20T06:55:24.510Z,30.77
2018-08-20T06:56:24.419Z,31.02
2018-08-20T06:57:24.669Z,31.27
2018-08-20T06:58:24.428Z,31.22
2018-08-20T06:59:24.703Z,31.09
2018-08-20T07:00:24.292Z,31.14
2018-08-20T07:01:24.711Z,31.07
2018-08-20T07:02:24.461Z,31.07
2018-08-20T07:03:24.211Z,31.21
2018-08-20T07:04:24.490Z,31.42
2018-08-20T07:05:24.477Z,31.44
2018-08-20T07:06:24.610Z,31.61
2018-08-20T07:07:24.508Z,31.71
2018-08-20T07:08:24.768Z,31.61
2018-08-20T07:09:24.514Z,31.84
2018-08-20T07:10:24.777Z,31.84
2018-08-20T07:11:24.269Z,31.92
2018-08-20T07:12:24.270Z,32.09
2018-08-20T07:13:24.537Z,32.12
2018-08-20T07:14:24.805Z,32.21
2018-08-20T07:15:24.857Z,32.21
2018-08-20T07:16:24.565Z,32.22
2018-08-20T07:17:24.635Z,32.26
2018-08-20T07:18:24.589Z,32.33
2018-08-20T07:19:24.865Z,32.43
2018-08-20T07:20:24.676Z,32.46
2018-08-20T07:21:24.858Z,32.48
2018-08-20T07:22:24.867Z,32.46
2018-08-20T07:23:25.059Z,32.52
2018-08-20T07:24:24.365Z,32.75
2018-08-20T07:25:24.631Z,33.04
2018-08-20T07:26:24.910Z,33.28
2018-08-20T07:27:24.945Z,33.27
2018-08-20T07:28:24.915Z,32.92
2018-08-20T07:29:24.938Z,32.73
2018-08-20T07:30:24.471Z,32.75
2018-08-20T07:31:24.708Z,32.15
2018-08-20T07:32:24.437Z,31.97
2018-08-20T07:33:24.716Z,31.78
2018-08-20T07:34:24.974Z,31.09
2018-08-20T07:35:24.765Z,30.4
2018-08-20T07:36:25.001Z,29.91
2018-08-20T07:37:24.744Z,29.44
2018-08-20T07:38:24.741Z,28.94
2018-08-20T07:39:24.752Z,28.62
2018-08-20T07:40:24.865Z,28.29
2018-08-20T07:41:25.019Z,28.08
2018-08-20T07:42:24.845Z,27.95
2018-08-20T07:43:24.517Z,28.2
2018-08-20T07:44:24.518Z,28.56
2018-08-20T07:45:25.144Z,29.24
2018-08-20T07:46:25.067Z,29.98
2018-08-20T07:47:24.812Z,30.57
2018-08-20T07:48:24.547Z,31.36
2018-08-20T07:49:25.085Z,31.89
2018-08-20T07:50:24.922Z,32.08
2018-08-20T07:51:24.831Z,32.18
2018-08-20T07:52:24.867Z,32.41
2018-08-20T07:53:25.109Z,32.6
2018-08-20T07:54:24.598Z,32.86
2018-08-20T07:55:25.195Z,33.15
2018-08-20T07:56:24.875Z,33.19
2018-08-20T07:57:25.131Z,33.46
2018-08-20T07:58:24.665Z,33.79
2018-08-20T07:59:25.151Z,34.11
2018-08-20T08:00:25.149Z,34.27
2018-08-20T08:01:25.192Z,34.24
2018-08-20T08:02:24.665Z,34.3
2018-08-20T08:03:25.193Z,34.42
2018-08-20T08:04:25.181Z,34.36
2018-08-20T08:05:25.307Z,34.4
2018-08-20T08:06:24.950Z,34.5
2018-08-20T08:07:24.961Z,34.73
2018-08-20T08:08:24.959Z,34.9
2018-08-20T08:09:24.990Z,34.95
2018-08-20T08:10:25.063Z,34.95
2018-08-20T08:11:25.011Z,34.9
2018-08-20T08:12:25.260Z,34.57
2018-08-20T08:13:25.018Z,34.36
2018-08-20T08:14:25.389Z,33.81
2018-08-20T08:15:25.340Z,33.47
2018-08-20T08:16:25.308Z,33.07
2018-08-20T08:17:25.056Z,32.97
2018-08-20T08:18:25.326Z,32.56
2018-08-20T08:19:25.316Z,32.59
2018-08-20T08:20:25.082Z,32.63
2018-08-20T08:21:25.351Z,32.56
2018-08-20T08:22:25.087Z,32.52
2018-08-20T08:23:25.116Z,32.36
2018-08-20T08:24:25.363Z,32.08
2018-08-20T08:25:25.462Z,31.99
2018-08-20T08:26:25.191Z,32.08
2018-08-20T08:27:25.121Z,32.53
2018-08-20T08:28:25.383Z,32.78
2018-08-20T08:29:25.401Z,33.3
2018-08-20T08:30:25.232Z,33.77
2018-08-20T08:31:25.411Z,34.01
2018-08-20T08:32:25.423Z,34.08
2018-08-20T08:33:25.182Z,34.38
2018-08-20T08:34:26.492Z,34.21
2018-08-20T08:35:25.257Z,33.8
2018-08-20T08:36:25.195Z,33.73
2018-08-20T08:37:25.217Z,33.42
2018-08-20T08:38:25.478Z,33.22
2018-08-20T08:39:25.245Z,32.74
2018-08-20T08:40:25.559Z,32.41
2018-08-20T08:41:25.239Z,32.09
2018-08-20T08:42:25.504Z,31.74
2018-08-20T08:43:25.261Z,31.22
2018-08-20T08:44:25.016Z,30.73
2018-08-20T08:45:25.597Z,30.31
2018-08-20T08:46:25.537Z,29.93
2018-08-20T08:47:25.543Z,29.79
2018-08-20T08:48:25.567Z,29.73
2018-08-20T08:49:25.566Z,29.73
2018-08-20T08:50:25.349Z,29.71
2018-08-20T08:51:25.313Z,29.76
2018-08-20T08:52:25.336Z,29.82
2018-08-20T08:53:25.359Z,29.6
2018-08-20T08:54:25.612Z,29.39
2018-08-20T08:55:25.623Z,29.05
2018-08-20T08:56:25.615Z,28.72
2018-08-20T08:57:25.623Z,28.48
2018-08-20T08:58:25.376Z,28.39
2018-08-20T08:59:25.634Z,28.2
2018-08-20T09:00:25.842Z,28.05
2018-08-20T09:01:25.653Z,27.85
2018-08-20T09:02:25.649Z,27.86
2018-08-20T09:03:25.161Z,27.75
2018-08-20T09:04:27.163Z,27.83
2018-08-20T09:05:25.457Z,27.75
2018-08-20T09:06:25.421Z,27.73
2018-08-20T09:07:25.182Z,27.71
2018-08-20T09:08:25.433Z,27.85
2018-08-20T09:09:25.687Z,27.89
2018-08-20T09:10:25.450Z,28.19
2018-08-20T09:11:25.701Z,28.32
2018-08-20T09:12:25.467Z,28.39
2018-08-20T09:13:25.718Z,28.42
2018-08-20T09:14:26.032Z,28.67
2018-08-20T09:15:25.788Z,28.78
2018-08-20T09:16:25.749Z,28.66
2018-08-20T09:17:25.484Z,28.63
2018-08-20T09:18:25.506Z,28.47
2018-08-20T09:19:25.504Z,28.49
2018-08-20T09:20:25.759Z,28.49
2018-08-20T09:21:25.518Z,28.47
2018-08-20T09:22:25.518Z,28.45
2018-08-20T09:23:25.781Z,28.42
2018-08-20T09:24:25.547Z,28.33
2018-08-20T09:25:25.790Z,28.27
2018-08-20T09:26:25.795Z,28.26
2018-08-20T09:27:25.791Z,28.22
2018-08-20T09:28:25.836Z,28.14
2018-08-20T09:29:25.574Z,28.19
2018-08-20T09:30:25.833Z,28.19
2018-08-20T09:31:25.838Z,28.04
2018-08-20T09:32:26.080Z,28.08
2018-08-20T09:33:25.574Z,28.07
2018-08-20T09:34:25.590Z,28.07
2018-08-20T09:35:25.862Z,28.07
2018-08-20T09:36:25.855Z,28.1
2018-08-20T09:37:25.882Z,27.96
2018-08-20T09:38:26.191Z,28.04
2018-08-20T09:39:25.615Z,28.15
2018-08-20T09:40:25.610Z,28.38
2018-08-20T09:41:25.612Z,28.38
2018-08-20T09:42:25.897Z,28.59
2018-08-20T09:43:25.896Z,28.63
2018-08-20T09:44:25.905Z,28.79
2018-08-20T09:45:25.905Z,28.98
2018-08-20T09:46:25.378Z,28.93
2018-08-20T09:47:25.645Z,28.97
2018-08-20T09:48:25.914Z,28.93
2018-08-20T09:49:25.919Z,29.01
2018-08-20T09:50:25.781Z,28.98
2018-08-20T09:51:25.929Z,28.88
2018-08-20T09:52:25.916Z,28.74
2018-08-20T09:53:26.182Z,28.54
2018-08-20T09:54:25.958Z,28.3
2018-08-20T09:55:26.036Z,28.29
2018-08-20T09:56:25.693Z,28.27
2018-08-20T09:57:25.967Z,28.29
2018-08-20T09:58:25.725Z,28.29
2018-08-20T09:59:25.994Z,28.26
2018-08-20T10:00:26.023Z,28.22
2018-08-20T10:01:25.720Z,28.19
2018-08-20T10:02:25.985Z,28.15
2018-08-20T10:03:25.730Z,28.19
2018-08-20T10:04:25.750Z,28.29
2018-08-20T10:05:26.265Z,28.26
2018-08-20T10:06:25.747Z,28.3
2018-08-20T10:07:26.193Z,28.51
2018-08-20T10:08:26.017Z,28.6
2018-08-20T10:09:25.754Z,28.72
2018-08-20T10:10:25.586Z,28.69
2018-08-20T10:11:26.051Z,28.56
2018-08-20T10:12:26.029Z,28.45
2018-08-20T10:13:25.526Z,28.52
2018-08-20T10:14:26.046Z,28.48
2018-08-20T10:15:26.040Z,28.52
2018-08-20T10:16:26.053Z,28.38
2018-08-20T10:17:26.047Z,28.38
2018-08-20T10:18:26.209Z,28.29
2018-08-20T10:19:25.827Z,28.2
2018-08-20T10:20:25.823Z,28.05
2018-08-20T10:21:26.078Z,28.04
2018-08-20T10:22:26.083Z,28.08
2018-08-20T10:23:25.842Z,28.1
2018-08-20T10:24:25.853Z,28.08
2018-08-20T10:25:25.845Z,28.1
2018-08-20T10:26:25.864Z,28.2
2018-08-20T10:27:26.096Z,28.15
2018-08-20T10:28:26.105Z,28.2
2018-08-20T10:29:25.864Z,28.3
2018-08-20T10:30:25.884Z,28.29
2018-08-20T10:31:25.864Z,28.38
2018-08-20T10:32:25.638Z,28.41
2018-08-20T10:33:25.877Z,28.51
2018-08-20T10:34:25.917Z,28.69
2018-08-20T10:35:25.944Z,28.86
2018-08-20T10:36:25.915Z,28.79
2018-08-20T10:37:25.912Z,28.89
2018-08-20T10:38:26.179Z,28.97
2018-08-20T10:39:25.942Z,28.97
2018-08-20T10:40:25.760Z,28.97
2018-08-20T10:41:25.943Z,28.94
2018-08-20T10:42:25.948Z,28.97
2018-08-20T10:43:25.928Z,28.86
2018-08-20T10:44:25.940Z,28.82
2018-08-20T10:45:26.200Z,29.01
2018-08-20T10:46:26.207Z,28.98
2018-08-20T10:47:25.957Z,29.14
2018-08-20T10:48:26.250Z,29.35
2018-08-20T10:49:26.238Z,29.27
2018-08-20T10:50:26.789Z,29.14
2018-08-20T10:51:25.981Z,29.04
2018-08-20T10:52:25.740Z,28.96
2018-08-20T10:53:25.758Z,28.76
2018-08-20T10:54:26.001Z,28.75
2018-08-20T10:55:26.045Z,28.63
2018-08-20T10:56:26.153Z,28.64
2018-08-20T10:57:26.006Z,28.6
2018-08-20T10:58:26.273Z,28.6
2018-08-20T10:59:26.008Z,28.54
2018-08-20T11:00:26.112Z,28.63
2018-08-20T11:01:26.038Z,28.64
2018-08-20T11:02:26.038Z,28.67
2018-08-20T11:03:26.291Z,28.81
2018-08-20T11:04:26.050Z,28.93
2018-08-20T11:05:26.097Z,28.85
2018-08-20T11:06:26.063Z,28.98
2018-08-20T11:07:26.062Z,28.85
2018-08-20T11:08:26.086Z,28.78
2018-08-20T11:09:26.062Z,28.89
2018-08-20T11:10:26.422Z,28.88
2018-08-20T11:11:26.086Z,28.91
2018-08-20T11:12:26.066Z,28.94
2018-08-20T11:13:25.837Z,29.04
2018-08-20T11:14:26.080Z,29.08
2018-08-20T11:15:26.219Z,29.24
2018-08-20T11:16:26.391Z,29.39
2018-08-20T11:17:26.383Z,29.47
2018-08-20T11:18:26.282Z,29.47
2018-08-20T11:19:26.369Z,29.34
2018-08-20T11:20:26.426Z,29.27
2018-08-20T11:21:26.177Z,29.27
2018-08-20T11:22:26.135Z,29.29
2018-08-20T11:23:26.462Z,29.1
2018-08-20T11:24:26.151Z,29.04
2018-08-20T11:25:26.201Z,28.96
2018-08-20T11:26:26.167Z,29.01
2018-08-20T11:27:26.435Z,29.01
2018-08-20T11:28:26.167Z,29.08
2018-08-20T11:29:26.448Z,28.98
2018-08-20T11:30:26.580Z,29.02
2018-08-20T11:31:26.188Z,28.96
2018-08-20T11:32:25.930Z,29.04
2018-08-20T11:33:26.454Z,29.1
2018-08-20T11:34:25.944Z,29.07
2018-08-20T11:35:26.460Z,29.1
2018-08-20T11:36:26.455Z,29.12
2018-08-20T11:37:26.478Z,29.12
2018-08-20T11:38:26.222Z,29.13
2018-08-20T11:39:26.508Z,29.22
2018-08-20T11:40:26.295Z,29.17
2018-08-20T11:41:25.978Z,29.13
2018-08-20T11:42:26.239Z,29.13
2018-08-20T11:43:26.653Z,29.16
2018-08-20T11:44:26.258Z,29.34
2018-08-20T11:45:25.998Z,29.35
2018-08-20T11:46:26.277Z,29.44
2018-08-20T11:47:26.006Z,29.35
2018-08-20T11:48:26.271Z,29.44
2018-08-20T11:49:26.023Z,29.39
2018-08-20T11:50:26.538Z,29.51
2018-08-20T11:51:26.285Z,29.66
2018-08-20T11:52:26.562Z,29.75
2018-08-20T11:53:26.571Z,29.86
2018-08-20T11:54:26.314Z,30.03
2018-08-20T11:55:26.302Z,29.97
2018-08-20T11:56:26.334Z,29.88
2018-08-20T11:57:26.332Z,29.87
2018-08-20T11:58:26.595Z,29.78
2018-08-20T11:59:26.328Z,29.69
2018-08-20T12:00:26.427Z,29.59
2018-08-20T12:01:26.331Z,29.68
2018-08-20T12:02:26.097Z,29.65
2018-08-20T12:03:26.620Z,29.61
2018-08-20T12:04:26.373Z,29.66
2018-08-20T12:05:26.108Z,29.63
2018-08-20T12:06:26.375Z,29.47
2018-08-20T12:07:27.006Z,29.41
2018-08-20T12:08:26.638Z,29.39
2018-08-20T12:09:26.654Z,29.44
2018-08-20T12:10:26.398Z,29.39
2018-08-20T12:11:26.643Z,29.38
2018-08-20T12:12:26.154Z,29.44
2018-08-20T12:13:26.400Z,29.41
2018-08-20T12:14:26.172Z,29.44
2018-08-20T12:15:26.474Z,29.44
2018-08-20T12:16:26.412Z,29.5
2018-08-20T12:17:26.853Z,29.45
2018-08-20T12:18:26.443Z,29.35
2018-08-20T12:19:26.469Z,29.35
2018-08-20T12:20:26.466Z,29.36
2018-08-20T12:21:26.444Z,29.45
2018-08-20T12:22:26.639Z,29.45
2018-08-20T12:23:26.731Z,29.45
2018-08-20T12:24:26.463Z,29.44
2018-08-20T12:25:26.553Z,29.42
2018-08-20T12:26:26.481Z,29.41
2018-08-20T12:27:26.496Z,29.35
2018-08-20T12:28:26.490Z,29.29
2018-08-20T12:29:26.486Z,29.32
2018-08-20T12:30:26.552Z,29.45
2018-08-20T12:31:26.516Z,29.53
2018-08-20T12:32:26.502Z,29.6
2018-08-20T12:33:26.513Z,29.73
2018-08-20T12:34:27.011Z,29.65
2018-08-20T12:35:27.387Z,29.72
2018-08-20T12:36:26.528Z,29.68
2018-08-20T12:37:26.526Z,29.71
2018-08-20T12:38:26.791Z,29.72
2018-08-20T12:39:26.550Z,29.73
2018-08-20T12:40:27.433Z,29.73
2018-08-20T12:41:26.541Z,29.71
2018-08-20T12:42:26.824Z,29.73
2018-08-20T12:43:26.560Z,29.78
2018-08-20T12:44:26.682Z,29.78
2018-08-20T12:45:26.832Z,29.72
2018-08-20T12:46:26.322Z,29.65
2018-08-20T12:47:26.598Z,29.61
2018-08-20T12:48:26.592Z,29.69
2018-08-20T12:49:26.338Z,29.65
2018-08-20T12:50:26.395Z,29.59
2018-08-20T12:51:26.675Z,29.71
2018-08-20T12:52:26.665Z,29.72
2018-08-20T12:53:26.353Z,29.69
2018-08-20T12:54:26.873Z,29.72
2018-08-20T12:55:26.664Z,29.73